Airfield :
LOGIN :

Register | Disclaimer

   EN    FR    IT 

 










Legend :    VFR   Marginal VFR   IFR   Intensive IFR   Very Intensive IFR
Visi :
Ceiling :
>= 8 km
>= 3000ft
5 to 8 km
1000 to 3000 ft
1500m to 5 km
500 to 1000 ft
800 to 1500m
200 to 500 ft
< 800m
< 200 ft
Symbols :   Thunderstorms  Fog  Heavy snow  Heavy precipitations  Wind > 20 kt
SIGMETs :     Misc.  Thunderstorms  Icing  Turbulence  Mountain Waves  Volcanic Ashes







- Airport Elevation : 245 ft
- IATA code : BIQ
- Download approach charts


LFBZ - Biarritz

CURRENT METAR :
  • 130630Z AUTO 17007KT 140V200 9999 -RA ///TCU 11/09 Q1005 TEMPO 26020G40KT 3000 RA OVC014

EXPIRED METARs :
  • 130600Z AUTO 18004KT 150V230 9999 -RA ///CB 10/09 Q1005 BECMG 26015G25KT BKN050
  • 130530Z AUTO 17004KT 140V200 9999 -RA BKN066/// BKN078/// OVC088/// ///CB 10/09 Q1006 BECMG 26015KT OVC060
  • 130500Z AUTO 14002KT 9999 RA FEW052/// OVC084/// ///CB 09/08 Q1006 TEMPO 4500 RA BECMG 26015KT OVC060
  • 130430Z AUTO VRB03KT 9999 -RA FEW058/// OVC090/// ///CB 10/08 Q1006 TEMPO 4500 RA BECMG 26015KT OVC060
  • 130400Z AUTO 16003KT 9999 -RA SCT056/// OVC082/// ///CB 10/08 Q1007 BECMG NSC
  • 130330Z AUTO VRB03KT 9999 -RA FEW056/// OVC100/// ///TCU 10/08 Q1007 BECMG NSC

TAF AMD TAF LFBZ
Valid from the 13 at 06:00 until the 14 at 06:00 UTC


130529Z 1306/1406 15004KT 9999 -RA BKN050
BECMG 1306/1308 26015G25KT
TEMPO 1308/1312 26020G40KT 3000 RA OVC014
TEMPO 1312/1406 28020G40KT 3000 SHRA BKN012 FEW025CB BKN030TCU
No reported NOTAMs for that airfield.
1 SIGMET reported for the Bordeaux FIR (LFBB) :
 
Severe turbulence
LFBB SIGMET 1 VALID 130600/130800 LFPW
LFBB BORDEAUX FIR/UIR SEV TURB OBS WI N4245 W00030 - N4300 W00145 - N4630 W00130 - N4630 W00015 - N4700 W00015 - N4245 W00030 FL300/390 STNR NC=



MET'MAP, your aeronautical weather chart ! - Copyright ORBIFLY December 2007 - Disclaimer

ORBIFLY MET'MAP TEAM :

Programming & Development : Alexandra Zaïnal
Concept & Development : Baudouin d'Aumeries
Co-Development & Prog : Marc-Olivier Méhu
Technical & hardware support : Manuel Goepfert

Contact : metmap@orbifly.com




SOURCES & CREDITS :

   NOAA